createdAt,value
2023-01-19T00:00:55.667Z,-2.23
2023-01-19T00:01:55.718Z,-2.25
2023-01-19T00:02:55.386Z,-2.20
2023-01-19T00:03:55.467Z,-2.36
2023-01-19T00:04:55.251Z,-2.34
2023-01-19T00:05:55.353Z,-2.34
2023-01-19T00:06:55.160Z,-2.40
2023-01-19T00:07:55.283Z,-2.33
2023-01-19T00:08:55.043Z,-2.37
2023-01-19T00:09:56.121Z,-2.42
2023-01-19T00:10:54.946Z,-2.52
2023-01-19T00:11:55.014Z,-2.57
2023-01-19T00:12:54.841Z,-2.54
2023-01-19T00:13:55.075Z,-2.55
2023-01-19T00:14:54.732Z,-2.58
2023-01-19T00:15:54.858Z,-2.54
2023-01-19T00:16:54.631Z,-2.63
2023-01-19T00:17:54.847Z,-2.62
2023-01-19T00:18:54.525Z,-2.68
2023-01-19T00:19:54.495Z,-2.61
2023-01-19T00:20:54.662Z,-2.66
2023-01-19T00:21:54.371Z,-2.73
2023-01-19T00:22:54.474Z,-2.80
2023-01-19T00:23:54.281Z,-2.75
2023-01-19T00:24:54.210Z,-2.73
2023-01-19T00:25:54.461Z,-2.70
2023-01-19T00:26:54.147Z,-2.83
2023-01-19T00:27:54.065Z,-2.89
2023-01-19T00:28:54.213Z,-2.76
2023-01-19T00:29:53.953Z,-2.83
2023-01-19T00:30:53.898Z,-2.86
2023-01-19T00:31:54.030Z,-2.76
2023-01-19T00:32:53.797Z,-2.83
2023-01-19T00:33:53.789Z,-2.76
2023-01-19T00:34:53.692Z,-2.72
2023-01-19T00:35:53.791Z,-2.78
2023-01-19T00:36:53.704Z,-2.78
2023-01-19T00:37:54.682Z,-2.65
2023-01-19T00:38:53.477Z,-2.68
2023-01-19T00:39:53.678Z,-2.72
2023-01-19T00:40:53.378Z,-2.75
2023-01-19T00:41:53.329Z,-2.61
2023-01-19T00:42:53.292Z,-2.65
2023-01-19T00:43:54.320Z,-2.65
2023-01-19T00:44:53.163Z,-2.62
2023-01-19T00:45:53.299Z,-2.72
2023-01-19T00:46:53.055Z,-2.66
2023-01-19T00:47:53.007Z,-2.62
2023-01-19T00:48:54.302Z,-2.62
2023-01-19T00:49:52.911Z,-2.65
2023-01-19T00:50:52.941Z,-2.58
2023-01-19T00:51:52.799Z,-2.65
2023-01-19T00:52:52.749Z,-2.62
2023-01-19T00:53:52.695Z,-2.58
2023-01-19T00:54:52.766Z,-2.65
2023-01-19T00:55:52.591Z,-2.52
2023-01-19T00:56:52.774Z,-2.66
2023-01-19T00:57:52.487Z,-2.55
2023-01-19T00:58:52.641Z,-2.47
2023-01-19T00:59:52.387Z,-2.57
2023-01-19T01:00:52.700Z,-2.54
2023-01-19T01:01:52.433Z,-2.51
2023-01-19T01:02:52.461Z,-2.62
2023-01-19T01:03:52.179Z,-2.54
2023-01-19T01:04:52.149Z,-2.62
2023-01-19T01:05:52.235Z,-2.62
2023-01-19T01:06:52.024Z,-2.63
2023-01-19T01:07:52.241Z,-2.70
2023-01-19T01:08:51.917Z,-2.75
2023-01-19T01:09:51.863Z,-2.76
2023-01-19T01:10:51.924Z,-2.84
2023-01-19T01:11:51.863Z,-2.93
2023-01-19T01:12:55.539Z,-2.89
2023-01-19T01:13:51.881Z,-2.93
2023-01-19T01:14:51.607Z,-3.07
2023-01-19T01:15:51.546Z,-3.04
2023-01-19T01:16:51.746Z,-3.01
2023-01-19T01:17:51.439Z,-3.05
2023-01-19T01:18:51.506Z,-3.08
2023-01-19T01:19:51.332Z,-3.15
2023-01-19T01:20:51.521Z,-3.12
2023-01-19T01:21:51.371Z,-3.14
2023-01-19T01:22:51.328Z,-3.20
2023-01-19T01:23:51.129Z,-3.14
2023-01-19T01:24:51.341Z,-3.14
2023-01-19T01:25:51.031Z,-3.12
2023-01-19T01:26:50.971Z,-3.17
2023-01-19T01:27:50.936Z,-3.17
2023-01-19T01:28:50.903Z,-3.23
2023-01-19T01:29:50.809Z,-3.33
2023-01-19T01:30:50.979Z,-3.27
2023-01-19T01:31:50.743Z,-3.29
2023-01-19T01:32:50.665Z,-3.29
2023-01-19T01:33:50.928Z,-3.26
2023-01-19T01:34:50.557Z,-3.33
2023-01-19T01:35:50.609Z,-3.30
2023-01-19T01:36:50.439Z,-3.26
2023-01-19T01:37:50.388Z,-3.30
2023-01-19T01:38:50.682Z,-3.27
2023-01-19T01:39:50.427Z,-3.33
2023-01-19T01:40:50.235Z,-3.30
2023-01-19T01:41:50.444Z,-3.30
2023-01-19T01:42:50.130Z,-3.27
2023-01-19T01:43:50.083Z,-3.14
2023-01-19T01:44:50.393Z,-3.20
2023-01-19T01:45:50.000Z,-3.17
2023-01-19T01:46:49.997Z,-3.23
2023-01-19T01:47:49.863Z,-3.20
2023-01-19T01:48:50.083Z,-3.20
2023-01-19T01:49:49.766Z,-3.09
2023-01-19T01:50:49.896Z,-3.20
2023-01-19T01:51:49.651Z,-3.12
2023-01-19T01:53:07.060Z,-3.12
2023-01-19T01:53:49.554Z,-3.15
2023-01-19T01:54:49.501Z,-3.04
2023-01-19T01:55:49.449Z,-3.01
2023-01-19T01:56:49.671Z,-3.01
2023-01-19T01:57:49.337Z,-3.04
2023-01-19T01:58:49.551Z,-3.01
2023-01-19T01:59:49.237Z,-3.15
2023-01-19T02:00:49.258Z,-3.19
2023-01-19T02:01:49.426Z,-3.20
2023-01-19T02:02:49.072Z,-3.23
2023-01-19T02:03:49.170Z,-3.32
2023-01-19T02:04:48.980Z,-3.33
2023-01-19T02:05:48.922Z,-3.30
2023-01-19T02:06:49.045Z,-3.33
2023-01-19T02:07:49.010Z,-3.36
2023-01-19T02:08:48.756Z,-3.27
2023-01-19T02:09:48.806Z,-3.37
2023-01-19T02:10:48.665Z,-3.37
2023-01-19T02:11:48.602Z,-3.37
2023-01-19T02:12:48.830Z,-3.37
2023-01-19T02:13:48.512Z,-3.44
2023-01-19T02:14:48.563Z,-3.44
2023-01-19T02:15:48.394Z,-3.41
2023-01-19T02:16:48.482Z,-3.43
2023-01-19T02:17:48.300Z,-3.47
2023-01-19T02:18:48.599Z,-3.48
2023-01-19T02:19:48.183Z,-3.64
2023-01-19T02:20:48.274Z,-3.61
2023-01-19T02:21:48.078Z,-3.74
2023-01-19T02:22:48.021Z,-3.75
2023-01-19T02:23:47.976Z,-3.78
2023-01-19T02:24:48.097Z,-3.81
2023-01-19T02:25:47.866Z,-3.81
2023-01-19T02:26:47.915Z,-3.88
2023-01-19T02:27:47.755Z,-3.95
2023-01-19T02:28:47.713Z,-3.88
2023-01-19T02:29:47.934Z,-4.04
2023-01-19T02:30:47.809Z,-3.95
2023-01-19T02:31:47.740Z,-3.91
2023-01-19T02:32:47.509Z,-3.88
2023-01-19T02:33:47.455Z,-4.01
2023-01-19T02:34:47.389Z,-3.98
2023-01-19T02:35:47.561Z,-3.90
2023-01-19T02:36:47.308Z,-3.96
2023-01-19T02:37:47.372Z,-4.02
2023-01-19T02:38:47.189Z,-4.04
2023-01-19T02:39:47.123Z,-4.02
2023-01-19T02:40:47.069Z,-3.99
2023-01-19T02:41:47.199Z,-4.08
2023-01-19T02:42:49.229Z,-3.99
2023-01-19T02:43:47.007Z,-4.05
2023-01-19T02:44:46.861Z,-4.06
2023-01-19T02:45:46.827Z,-3.99
2023-01-19T02:46:47.030Z,-4.02
2023-01-19T02:47:46.704Z,-4.13
2023-01-19T02:48:46.838Z,-4.19
2023-01-19T02:49:46.590Z,-4.17
2023-01-19T02:50:46.569Z,-4.20
2023-01-19T02:51:46.486Z,-4.30
2023-01-19T02:52:46.665Z,-4.26
2023-01-19T02:53:46.381Z,-4.33
2023-01-19T02:54:46.596Z,-4.35
2023-01-19T02:55:46.276Z,-4.33
2023-01-19T02:56:46.234Z,-4.33
2023-01-19T02:57:46.165Z,-4.35
2023-01-19T02:58:46.300Z,-4.33
2023-01-19T02:59:46.062Z,-4.33
2023-01-19T03:00:46.312Z,-4.47
2023-01-19T03:01:46.063Z,-4.49
2023-01-19T03:02:46.074Z,-4.44
2023-01-19T03:03:45.849Z,-4.49
2023-01-19T03:04:45.931Z,-4.61
2023-01-19T03:05:45.745Z,-4.62
2023-01-19T03:06:46.066Z,-4.59
2023-01-19T03:07:45.958Z,-4.65
2023-01-19T03:08:45.584Z,-4.70
2023-01-19T03:09:45.764Z,-4.67
2023-01-19T03:10:45.481Z,-4.67
2023-01-19T03:11:45.575Z,-4.79
2023-01-19T03:12:45.371Z,-4.70
2023-01-19T03:13:45.559Z,-4.69
2023-01-19T03:14:45.397Z,-4.80
2023-01-19T03:15:45.240Z,-4.73
2023-01-19T03:16:45.449Z,-4.71
2023-01-19T03:17:45.105Z,-4.79
2023-01-19T03:18:45.051Z,-4.71
2023-01-19T03:19:45.035Z,-4.67
2023-01-19T03:20:45.282Z,-4.65
2023-01-19T03:21:44.884Z,-4.67
2023-01-19T03:22:45.037Z,-4.67
2023-01-19T03:23:44.788Z,-4.56
2023-01-19T03:24:44.729Z,-4.49
2023-01-19T03:25:44.930Z,-4.45
2023-01-19T03:26:44.867Z,-4.51
2023-01-19T03:27:44.568Z,-4.49
2023-01-19T03:28:44.674Z,-4.33
2023-01-19T03:29:44.472Z,-4.38
2023-01-19T03:30:44.537Z,-4.24
2023-01-19T03:31:44.372Z,-4.13
2023-01-19T03:32:44.501Z,-4.09
2023-01-19T03:33:44.576Z,-3.95
2023-01-19T03:34:44.412Z,-3.98
2023-01-19T03:35:44.417Z,-3.88
2023-01-19T03:36:44.097Z,-3.80
2023-01-19T03:37:44.239Z,-3.74
2023-01-19T03:38:43.986Z,-3.58
2023-01-19T03:39:44.158Z,-3.53
2023-01-19T03:40:43.882Z,-3.46
2023-01-19T03:41:43.835Z,-3.46
2023-01-19T03:42:43.954Z,-3.36
2023-01-19T03:43:43.721Z,-3.25
2023-01-19T03:44:43.897Z,-3.14
2023-01-19T03:45:43.612Z,-3.20
2023-01-19T03:46:43.561Z,-3.07
2023-01-19T03:47:43.513Z,-3.01
2023-01-19T03:48:43.601Z,-3.07
2023-01-19T03:49:43.401Z,-3.02
2023-01-19T03:50:43.605Z,-3.07
2023-01-19T03:51:43.297Z,-3.01
2023-01-19T03:52:43.248Z,-2.94
2023-01-19T03:53:43.335Z,-2.98
2023-01-19T03:54:43.147Z,-2.87
2023-01-19T03:55:43.147Z,-2.76
2023-01-19T03:56:43.309Z,-2.75
2023-01-19T03:57:43.181Z,-2.66
2023-01-19T03:58:42.931Z,-2.78
2023-01-19T03:59:43.056Z,-2.70
2023-01-19T04:00:42.828Z,-2.75
2023-01-19T04:01:43.190Z,-2.78
2023-01-19T04:02:42.745Z,-2.99
2023-01-19T04:03:42.672Z,-2.94
2023-01-19T04:04:42.855Z,-3.01
2023-01-19T04:05:42.701Z,-3.11
2023-01-19T04:06:42.510Z,-3.05
2023-01-19T04:07:42.718Z,-3.05
2023-01-19T04:08:42.413Z,-3.04
2023-01-19T04:09:42.361Z,-2.83
2023-01-19T04:10:42.528Z,-2.94
2023-01-19T04:11:42.586Z,-3.05
2023-01-19T04:12:42.346Z,-3.04
2023-01-19T04:13:42.146Z,-3.05
2023-01-19T04:14:42.100Z,-3.05
2023-01-19T04:15:42.072Z,-3.01
2023-01-19T04:16:42.162Z,-3.02
2023-01-19T04:17:42.119Z,-3.08
2023-01-19T04:18:42.199Z,-3.05
2023-01-19T04:19:41.834Z,-3.01
2023-01-19T04:20:41.775Z,-2.98
2023-01-19T04:21:41.994Z,-2.94
2023-01-19T04:22:41.673Z,-2.94
2023-01-19T04:23:41.911Z,-2.94
2023-01-19T04:24:41.580Z,-2.96
2023-01-19T04:25:41.835Z,-2.99
2023-01-19T04:26:41.547Z,-2.90
2023-01-19T04:27:41.533Z,-2.99
2023-01-19T04:28:41.361Z,-2.98
2023-01-19T04:29:41.540Z,-3.07
2023-01-19T04:30:41.261Z,-2.99
2023-01-19T04:31:41.210Z,-3.07
2023-01-19T04:32:41.157Z,-3.02
2023-01-19T04:33:41.274Z,-3.07
2023-01-19T04:34:41.054Z,-2.94
2023-01-19T04:35:41.173Z,-3.04
2023-01-19T04:36:40.936Z,-3.01
2023-01-19T04:37:40.887Z,-3.05
2023-01-19T04:38:41.107Z,-2.98
2023-01-19T04:39:40.777Z,-2.98
2023-01-19T04:40:40.919Z,-2.90
2023-01-19T04:41:40.677Z,-2.90
2023-01-19T04:42:40.618Z,-2.91
2023-01-19T04:43:40.569Z,-2.80
2023-01-19T04:44:40.937Z,-2.83
2023-01-19T04:45:40.465Z,-2.72
2023-01-19T04:46:40.567Z,-2.75
2023-01-19T04:47:40.353Z,-2.66
2023-01-19T04:48:41.334Z,-2.58
2023-01-19T04:49:40.460Z,-2.66
2023-01-19T04:50:40.205Z,-2.57
2023-01-19T04:51:40.267Z,-2.52
2023-01-19T04:52:40.101Z,-2.50
2023-01-19T04:53:40.489Z,-2.39
2023-01-19T04:54:40.022Z,-2.42
2023-01-19T04:55:40.092Z,-2.47
2023-01-19T04:56:39.889Z,-2.50
2023-01-19T04:57:40.116Z,-2.40
2023-01-19T04:58:39.780Z,-2.57
2023-01-19T04:59:39.729Z,-2.40
2023-01-19T05:00:39.864Z,-2.50
2023-01-19T05:01:39.912Z,-2.62
2023-01-19T05:02:39.600Z,-2.51
2023-01-19T05:03:39.638Z,-2.48
2023-01-19T05:04:39.467Z,-2.42
2023-01-19T05:05:39.413Z,-2.50
2023-01-19T05:06:39.669Z,-2.47
2023-01-19T05:07:39.308Z,-2.44
2023-01-19T05:08:48.740Z,-2.44
2023-01-19T05:11:15.887Z,-2.39
2023-01-19T05:12:13.793Z,-2.44
2023-01-19T05:13:13.859Z,-2.45
2023-01-19T05:14:13.809Z,-2.36
2023-01-19T05:15:13.540Z,-2.39
2023-01-19T05:16:13.529Z,-2.32
2023-01-19T05:17:13.435Z,-2.26
2023-01-19T05:18:13.547Z,-2.42
2023-01-19T05:19:13.482Z,-2.28
2023-01-19T05:20:15.944Z,-2.40
2023-01-19T05:21:13.220Z,-2.39
2023-01-19T05:22:13.169Z,-2.42
2023-01-19T05:23:13.268Z,-2.48
2023-01-19T05:24:13.064Z,-2.36
2023-01-19T05:25:13.180Z,-2.39
2023-01-19T05:26:12.959Z,-2.45
2023-01-19T05:27:12.917Z,-2.51
2023-01-19T05:28:12.855Z,-2.50
2023-01-19T05:29:12.903Z,-2.66
2023-01-19T05:30:12.750Z,-2.54
2023-01-19T05:31:13.103Z,-2.55
2023-01-19T05:32:12.638Z,-2.54
2023-01-19T05:33:12.593Z,-2.50
2023-01-19T05:34:12.540Z,-2.54
2023-01-19T05:35:12.534Z,-2.73
2023-01-19T05:36:12.453Z,-2.80
2023-01-19T05:37:13.465Z,-2.90
2023-01-19T05:38:12.336Z,-2.84
2023-01-19T05:39:12.457Z,-2.87
2023-01-19T05:40:12.232Z,-3.05
2023-01-19T05:41:12.267Z,-3.02
2023-01-19T05:42:12.323Z,-3.02
2023-01-19T05:43:12.284Z,-3.07
2023-01-19T05:44:12.085Z,-3.12
2023-01-19T05:45:11.993Z,-3.12
2023-01-19T05:46:12.115Z,-3.14
2023-01-19T05:47:11.858Z,-3.23
2023-01-19T05:48:11.910Z,-3.12
2023-01-19T05:49:11.747Z,-3.27
2023-01-19T05:50:11.929Z,-3.32
2023-01-19T05:51:11.778Z,-3.32
2023-01-19T05:52:11.730Z,-3.33
2023-01-19T05:53:11.541Z,-3.44
2023-01-19T05:54:11.548Z,-3.38
2023-01-19T05:55:11.557Z,-3.44
2023-01-19T05:56:11.405Z,-3.55
2023-01-19T05:57:11.365Z,-3.58
2023-01-19T05:58:11.422Z,-3.68
2023-01-19T05:59:11.392Z,-3.71
2023-01-19T06:03:58.719Z,-4.02
2023-01-19T06:04:58.315Z,-4.08
2023-01-19T06:05:59.347Z,-4.19
2023-01-19T06:06:58.328Z,-4.12
2023-01-19T06:07:58.149Z,-4.22
2023-01-19T06:08:58.137Z,-4.13
2023-01-19T06:09:58.039Z,-4.16
2023-01-19T06:10:59.178Z,-4.17
2023-01-19T06:11:58.005Z,-4.14
2023-01-19T06:12:57.878Z,-4.13
2023-01-19T06:13:57.975Z,-4.23
2023-01-19T06:14:57.762Z,-4.23
2023-01-19T06:15:57.795Z,-4.20
2023-01-19T06:16:57.667Z,-4.09
2023-01-19T06:17:57.648Z,-4.12
2023-01-19T06:18:57.559Z,-4.05
2023-01-19T06:19:57.611Z,-3.91
2023-01-19T06:20:57.449Z,-3.99
2023-01-19T06:21:57.622Z,-3.96
2023-01-19T06:22:57.340Z,-3.95
2023-01-19T06:23:57.494Z,-3.88
2023-01-19T06:24:57.324Z,-3.91
2023-01-19T06:25:57.243Z,-3.69
2023-01-19T06:26:57.300Z,-3.78
2023-01-19T06:27:57.248Z,-3.71
2023-01-19T06:28:57.015Z,-3.65
2023-01-19T06:29:57.007Z,-3.77
2023-01-19T06:30:57.083Z,-3.68
2023-01-19T06:31:56.880Z,-3.65
2023-01-19T06:32:56.886Z,-3.64
2023-01-19T06:33:56.757Z,-3.69
2023-01-19T06:34:56.905Z,-3.55
2023-01-19T06:35:56.759Z,-3.74
2023-01-19T06:36:56.734Z,-3.75
2023-01-19T06:37:56.541Z,-3.74
2023-01-19T06:38:56.717Z,-3.69
2023-01-19T06:39:56.434Z,-3.69
2023-01-19T06:40:56.383Z,-3.74
2023-01-19T06:41:56.362Z,-3.78
2023-01-19T06:42:56.541Z,-3.75
2023-01-19T06:43:56.225Z,-3.65
2023-01-19T06:44:56.350Z,-3.55
2023-01-19T06:45:56.186Z,-3.62
2023-01-19T06:47:15.164Z,-3.65
2023-01-19T06:47:56.215Z,-3.56
2023-01-19T06:48:55.981Z,-3.48
2023-01-19T06:49:55.980Z,-3.40
2023-01-19T06:50:58.457Z,-3.43
2023-01-19T06:51:55.992Z,-3.27
2023-01-19T06:52:55.743Z,-3.33
2023-01-19T06:53:56.009Z,-3.37
2023-01-19T06:54:55.664Z,-3.30
2023-01-19T06:55:55.817Z,-3.23
2023-01-19T06:56:55.532Z,-3.37
2023-01-19T06:57:55.492Z,-3.33
2023-01-19T06:58:55.428Z,-3.17
2023-01-19T06:59:55.401Z,-3.19
2023-01-19T07:00:55.532Z,-3.30
2023-01-19T07:01:55.472Z,-3.29
2023-01-19T07:02:55.292Z,-3.26
2023-01-19T07:03:55.261Z,-3.30
2023-01-19T07:04:55.110Z,-3.09
2023-01-19T07:05:55.484Z,-2.98
2023-01-19T07:06:55.032Z,-2.90
2023-01-19T07:07:55.110Z,-2.98
2023-01-19T07:08:54.919Z,-3.01
2023-01-19T07:09:54.853Z,-3.04
2023-01-19T07:11:26.362Z,-2.94
2023-01-19T07:11:54.919Z,-3.04
2023-01-19T07:12:54.685Z,-3.04
2023-01-19T07:13:54.739Z,-3.09
2023-01-19T07:14:54.584Z,-3.19
2023-01-19T07:15:54.733Z,-3.25
2023-01-19T07:16:54.619Z,-3.26
2023-01-19T07:17:54.549Z,-3.19
2023-01-19T07:18:54.376Z,-3.20
2023-01-19T07:19:54.567Z,-3.22
2023-01-19T07:20:54.374Z,-3.19
2023-01-19T07:21:54.221Z,-3.20
2023-01-19T07:22:54.392Z,-3.19
2023-01-19T07:23:54.232Z,-3.15
2023-01-19T07:24:54.191Z,-3.29
2023-01-19T07:25:54.009Z,-3.25
2023-01-19T07:26:53.953Z,-3.12
2023-01-19T07:27:54.004Z,-3.14
2023-01-19T07:28:53.845Z,-3.29
2023-01-19T07:29:54.027Z,-3.19
2023-01-19T07:30:53.826Z,-3.22
2023-01-19T07:31:53.908Z,-3.19
2023-01-19T07:32:53.654Z,-3.20
2023-01-19T07:33:53.686Z,-3.19
2023-01-19T07:34:53.523Z,-3.17
2023-01-19T07:35:53.859Z,-3.09
2023-01-19T07:36:53.421Z,-3.04
2023-01-19T07:37:53.384Z,-2.94
2023-01-19T07:38:53.316Z,-3.05
2023-01-19T07:39:53.476Z,-2.84
2023-01-19T07:40:53.214Z,-2.89
2023-01-19T07:41:53.292Z,-2.99
2023-01-19T07:42:53.107Z,-2.83
2023-01-19T07:43:53.061Z,-2.73
2023-01-19T07:44:53.102Z,-2.73
2023-01-19T07:45:53.220Z,-2.78
2023-01-19T07:46:53.126Z,-2.81
2023-01-19T07:47:52.846Z,-2.78
2023-01-19T07:48:52.936Z,-2.81
2023-01-19T07:49:52.749Z,-2.89
2023-01-19T07:50:52.947Z,-2.89
2023-01-19T07:51:52.673Z,-2.89
2023-01-19T07:52:52.759Z,-2.90
2023-01-19T07:53:52.528Z,-2.86
2023-01-19T07:54:52.473Z,-2.83
2023-01-19T07:55:52.430Z,-2.86
2023-01-19T07:56:52.581Z,-2.91
2023-01-19T07:57:52.436Z,-2.87
2023-01-19T07:58:52.469Z,-2.87
2023-01-19T07:59:52.211Z,-2.93
2023-01-19T08:00:52.215Z,-2.84
2023-01-19T08:01:52.258Z,-2.70
2023-01-19T08:02:52.213Z,-2.76
2023-01-19T08:03:52.014Z,-2.72
2023-01-19T08:04:52.121Z,-2.69
2023-01-19T08:05:51.896Z,-2.81
2023-01-19T08:06:51.847Z,-2.81
2023-01-19T08:07:53.329Z,-2.96
2023-01-19T08:08:51.848Z,-2.94
2023-01-19T08:09:51.912Z,-2.91
2023-01-19T08:10:51.873Z,-2.84
2023-01-19T08:11:51.601Z,-2.86
2023-01-19T08:12:51.675Z,-2.76
2023-01-19T08:13:51.480Z,-2.72
2023-01-19T08:14:51.485Z,-2.73
2023-01-19T08:15:51.437Z,-2.70
2023-01-19T08:16:51.504Z,-2.52
2023-01-19T08:17:51.511Z,-2.50
2023-01-19T08:18:51.214Z,-2.63
2023-01-19T08:19:51.317Z,-2.55
2023-01-19T08:20:52.399Z,-2.40
2023-01-19T08:22:14.272Z,-2.44
2023-01-19T08:22:59.530Z,-2.50
2023-01-19T08:24:01.791Z,-2.40
2023-01-19T08:24:51.147Z,-2.48
2023-01-19T08:25:50.852Z,-2.29
2023-01-19T08:26:50.972Z,-2.13
2023-01-19T08:27:50.792Z,-2.07
2023-01-19T08:28:50.771Z,-2.08
2023-01-19T08:29:50.641Z,-1.93
2023-01-19T08:30:50.785Z,-1.93
2023-01-19T08:31:50.618Z,-1.90
2023-01-19T08:32:50.699Z,-1.92
2023-01-19T08:33:50.547Z,-2.04
2023-01-19T08:34:50.377Z,-2.07
2023-01-19T08:35:50.329Z,-2.33
2023-01-19T08:36:50.541Z,-2.28
2023-01-19T08:37:50.223Z,-2.25
2023-01-19T08:38:50.330Z,-2.36
2023-01-19T08:39:50.178Z,-2.54
2023-01-19T08:40:50.066Z,-2.52
2023-01-19T08:41:50.014Z,-2.50
2023-01-19T08:42:50.156Z,-2.44
2023-01-19T08:43:49.915Z,-2.47
2023-01-19T08:44:57.518Z,-2.32
2023-01-19T08:45:50.057Z,-2.36
2023-01-19T08:46:49.779Z,-2.45
2023-01-19T08:47:50.009Z,-2.40
2023-01-19T08:48:49.656Z,-2.45
2023-01-19T08:49:49.701Z,-2.55
2023-01-19T08:50:49.555Z,-2.48
2023-01-19T08:51:49.519Z,-2.57
2023-01-19T08:52:49.436Z,-2.57
2023-01-19T08:53:49.520Z,-2.62
2023-01-19T08:54:50.335Z,-2.55
2023-01-19T08:55:49.528Z,-2.51
2023-01-19T08:56:49.235Z,-2.39
2023-01-19T08:57:49.393Z,-2.39
2023-01-19T08:59:03.216Z,-2.57
2023-01-19T08:59:49.078Z,-2.39
2023-01-19T09:00:49.259Z,-2.45
2023-01-19T09:01:49.240Z,-2.65
2023-01-19T09:02:49.203Z,-2.57
2023-01-19T09:03:48.862Z,-2.52
2023-01-19T09:04:49.184Z,-2.54
2023-01-19T09:05:48.762Z,-2.44
2023-01-19T09:06:48.789Z,-2.45
2023-01-19T09:07:48.659Z,-2.34
2023-01-19T09:08:48.805Z,-2.37
2023-01-19T09:09:48.558Z,-2.36
2023-01-19T09:10:48.622Z,-2.48
2023-01-19T09:11:48.446Z,-2.40
2023-01-19T09:12:48.645Z,-2.18
2023-01-19T09:13:48.345Z,-2.25
2023-01-19T09:14:48.295Z,-2.26
2023-01-19T09:15:48.307Z,-2.18
2023-01-19T09:16:48.454Z,-2.04
2023-01-19T09:17:48.139Z,-2.02
2023-01-19T09:18:48.270Z,-1.97
2023-01-19T09:19:48.034Z,-1.99
2023-01-19T09:20:47.983Z,-2.02
2023-01-19T09:21:48.083Z,-1.93
2023-01-19T09:22:47.896Z,-1.86
2023-01-19T09:23:48.102Z,-1.74
2023-01-19T09:24:47.773Z,-1.74
2023-01-19T09:25:47.934Z,-1.72
2023-01-19T09:26:47.662Z,-1.72
2023-01-19T09:27:47.921Z,-1.64
2023-01-19T09:28:47.591Z,-1.57
2023-01-19T09:29:47.731Z,-1.53
2023-01-19T09:30:47.479Z,-1.46
2023-01-19T09:31:47.418Z,-1.39
2023-01-19T09:32:47.359Z,-1.33
2023-01-19T09:33:47.761Z,-1.33
2023-01-19T09:34:47.256Z,-1.35
2023-01-19T09:35:47.367Z,-1.25
2023-01-19T09:36:47.173Z,-1.24
2023-01-19T09:37:47.184Z,-1.11
2023-01-19T09:38:47.063Z,-1.29
2023-01-19T09:39:47.274Z,-1.11
2023-01-19T09:40:47.018Z,-1.27
2023-01-19T09:41:47.205Z,-1.32
2023-01-19T09:42:46.839Z,-1.24
2023-01-19T09:43:46.788Z,-1.25
2023-01-19T09:44:46.831Z,-1.24
2023-01-19T09:45:46.690Z,-1.24
2023-01-19T09:46:46.845Z,-1.29
2023-01-19T09:47:46.598Z,-1.30
2023-01-19T09:48:46.541Z,-1.24
2023-01-19T09:49:46.485Z,-1.14
2023-01-19T09:50:46.561Z,-1.11
2023-01-19T09:51:46.377Z,-1.19
2023-01-19T09:52:46.583Z,-1.06
2023-01-19T09:53:46.442Z,-0.99
2023-01-19T09:54:46.260Z,-0.89
2023-01-19T09:55:46.399Z,-0.66
2023-01-19T09:56:46.128Z,-0.46
2023-01-19T09:57:46.201Z,-0.02
2023-01-19T09:58:46.010Z,0.39
2023-01-19T09:59:46.207Z,0.55
2023-01-19T10:00:45.924Z,0.92
2023-01-19T10:01:46.124Z,1.38
2023-01-19T10:02:45.847Z,1.66
2023-01-19T10:03:46.037Z,1.97
2023-01-19T10:04:45.714Z,2.23
2023-01-19T10:05:45.900Z,2.57
2023-01-19T10:06:46.748Z,2.69
2023-01-19T10:07:46.679Z,2.90
2023-01-19T10:08:45.527Z,3.03
2023-01-19T10:09:45.669Z,3.22
2023-01-19T10:10:45.434Z,3.58
2023-01-19T10:11:52.683Z,3.76
2023-01-19T10:12:45.705Z,3.88
2023-01-19T10:13:45.286Z,3.94
2023-01-19T10:14:45.499Z,3.92
2023-01-19T10:15:45.215Z,3.91
2023-01-19T10:16:46.371Z,4.00
2023-01-19T10:17:45.109Z,4.00
2023-01-19T10:18:45.323Z,4.04
2023-01-19T10:19:46.647Z,4.13
2023-01-19T10:20:45.140Z,4.36
2023-01-19T10:21:44.913Z,4.30
2023-01-19T10:22:44.867Z,4.50
2023-01-19T10:23:44.949Z,4.49
2023-01-19T10:24:45.015Z,4.49
2023-01-19T10:25:45.014Z,4.60
2023-01-19T10:26:44.699Z,4.66
2023-01-19T10:27:44.774Z,4.63
2023-01-19T10:28:44.882Z,4.60
2023-01-19T10:29:44.815Z,4.66
2023-01-19T10:30:44.509Z,4.66
2023-01-19T10:31:44.656Z,4.89
2023-01-19T10:32:44.431Z,4.90
2023-01-19T10:33:44.390Z,5.00
2023-01-19T10:34:44.301Z,5.13
2023-01-19T10:35:44.425Z,5.18
2023-01-19T10:36:44.217Z,5.28
2023-01-19T10:37:44.477Z,5.31
2023-01-19T10:38:44.132Z,5.31
2023-01-19T10:39:44.342Z,5.52
2023-01-19T10:40:44.041Z,5.56
2023-01-19T10:41:44.298Z,5.65
2023-01-19T10:42:43.979Z,5.76
2023-01-19T10:43:44.127Z,5.91
2023-01-19T10:44:43.844Z,6.13
2023-01-19T10:45:44.157Z,6.36
2023-01-19T10:46:44.969Z,6.65
2023-01-19T10:47:43.900Z,6.72
2023-01-19T10:48:43.670Z,7.01
2023-01-19T10:49:43.718Z,7.03
2023-01-19T10:50:43.754Z,7.13
2023-01-19T10:51:43.642Z,7.26
2023-01-19T10:52:43.587Z,7.46
2023-01-19T10:53:43.474Z,7.44
2023-01-19T10:54:43.553Z,7.50
2023-01-19T10:55:43.379Z,7.53
2023-01-19T10:56:43.313Z,7.50
2023-01-19T10:57:43.600Z,7.56
2023-01-19T10:58:43.220Z,7.39
2023-01-19T10:59:43.412Z,7.28
2023-01-19T11:00:43.165Z,7.13
2023-01-19T11:01:43.258Z,7.13
2023-01-19T11:02:43.091Z,7.11
2023-01-19T11:03:43.239Z,7.07
2023-01-19T11:04:43.020Z,7.04
2023-01-19T11:05:43.015Z,7.05
2023-01-19T11:06:42.868Z,6.97
2023-01-19T11:07:42.831Z,6.96
2023-01-19T11:08:42.778Z,7.05
2023-01-19T11:09:43.051Z,7.28
2023-01-19T11:10:42.720Z,7.43
2023-01-19T11:11:42.849Z,7.75
2023-01-19T11:12:42.603Z,7.99
2023-01-19T11:13:42.585Z,8.26
2023-01-19T11:14:42.667Z,8.41
2023-01-19T11:15:42.495Z,8.60
2023-01-19T11:18:32.742Z,8.74
2023-01-19T11:19:21.815Z,8.84
2023-01-19T11:20:29.276Z,9.08
2023-01-19T11:21:21.723Z,9.09
2023-01-19T11:22:21.528Z,9.33
2023-01-19T11:23:21.751Z,9.48
2023-01-19T11:24:21.408Z,9.44
2023-01-19T11:25:21.551Z,9.47
2023-01-19T11:26:21.324Z,9.40
2023-01-19T11:27:21.566Z,9.62
2023-01-19T11:28:21.423Z,9.66
2023-01-19T11:29:21.413Z,9.81
2023-01-19T11:30:21.155Z,9.77
2023-01-19T11:31:21.453Z,9.87
2023-01-19T11:32:21.069Z,9.94
2023-01-19T11:33:21.202Z,10.33
2023-01-19T11:34:20.987Z,10.64
2023-01-19T11:35:21.212Z,10.87
2023-01-19T11:36:20.905Z,11.07
2023-01-19T11:37:21.234Z,11.12
2023-01-19T11:38:20.818Z,11.26
2023-01-19T11:39:21.036Z,11.60
2023-01-19T11:40:20.732Z,11.97
2023-01-19T11:41:20.697Z,12.20
2023-01-19T11:42:20.664Z,12.33
2023-01-19T11:43:20.858Z,12.36
2023-01-19T11:44:20.573Z,12.50
2023-01-19T11:45:20.667Z,12.36
2023-01-19T11:46:20.488Z,11.97
2023-01-19T11:47:20.449Z,12.05
2023-01-19T11:48:20.406Z,11.74
2023-01-19T11:49:20.697Z,11.60
2023-01-19T11:50:20.346Z,11.60
2023-01-19T11:51:20.528Z,11.71
2023-01-19T11:52:20.249Z,11.89
2023-01-19T11:53:20.212Z,11.74
2023-01-19T11:54:20.328Z,11.86
2023-01-19T11:55:20.138Z,11.67
2023-01-19T11:56:21.366Z,11.59
2023-01-19T11:57:20.035Z,11.80
2023-01-19T11:58:20.172Z,11.85
2023-01-19T11:59:19.946Z,12.03
2023-01-19T12:00:19.949Z,12.02
2023-01-19T12:01:21.187Z,11.86
2023-01-19T12:02:19.912Z,11.68
2023-01-19T12:03:20.111Z,11.58
2023-01-19T12:04:19.743Z,11.26
2023-01-19T12:05:19.897Z,11.05
2023-01-19T12:06:19.955Z,10.87
2023-01-19T12:07:19.920Z,10.65
2023-01-19T12:08:19.584Z,10.49
2023-01-19T12:09:19.747Z,10.57
2023-01-19T12:10:19.501Z,10.43
2023-01-19T12:11:19.744Z,10.36
2023-01-19T12:12:19.411Z,10.23
2023-01-19T12:13:19.765Z,10.06
2023-01-19T12:14:19.319Z,9.99
2023-01-19T12:15:19.572Z,9.85
2023-01-19T12:16:19.624Z,9.72
2023-01-19T12:17:19.187Z,9.64
2023-01-19T12:18:19.393Z,9.55
2023-01-19T12:19:19.149Z,9.42
2023-01-19T12:20:19.285Z,9.36
2023-01-19T12:21:19.007Z,9.33
2023-01-19T12:22:18.969Z,9.16
2023-01-19T12:23:18.926Z,9.18
2023-01-19T12:24:19.167Z,9.05
2023-01-19T12:25:18.967Z,8.78
2023-01-19T12:26:18.924Z,8.64
2023-01-19T12:27:18.745Z,8.59
2023-01-19T12:28:18.701Z,8.60
2023-01-19T12:29:18.656Z,8.52
2023-01-19T12:30:18.758Z,8.49
2023-01-19T12:31:18.725Z,8.44
2023-01-19T12:32:18.773Z,8.36
2023-01-19T12:33:18.475Z,8.27
2023-01-19T12:34:18.438Z,8.36
2023-01-19T12:35:18.578Z,8.21
2023-01-19T12:36:18.638Z,8.18
2023-01-19T12:37:18.594Z,8.06
2023-01-19T12:38:18.255Z,8.03
2023-01-19T12:39:18.409Z,8.03
2023-01-19T12:40:18.174Z,8.06
2023-01-19T12:41:18.427Z,7.96
2023-01-19T12:42:20.444Z,7.88
2023-01-19T12:43:18.234Z,7.62
2023-01-19T12:44:17.998Z,7.64
2023-01-19T12:45:17.928Z,7.62
2023-01-19T12:46:17.920Z,7.58
2023-01-19T12:47:18.055Z,7.67
2023-01-19T12:48:18.108Z,7.69
2023-01-19T12:49:17.869Z,7.58
2023-01-19T12:50:17.704Z,7.59
2023-01-19T12:51:17.691Z,7.64
2023-01-19T12:52:17.621Z,7.67
2023-01-19T12:53:17.752Z,7.77
2023-01-19T12:54:18.206Z,7.72
2023-01-19T12:55:17.722Z,7.88
2023-01-19T12:56:17.421Z,7.91
2023-01-19T12:57:17.576Z,7.98
2023-01-19T12:58:17.530Z,7.90
2023-01-19T12:59:17.282Z,8.16
2023-01-19T13:00:18.174Z,8.21
2023-01-19T13:01:17.300Z,8.36
2023-01-19T13:02:17.481Z,8.49
2023-01-19T13:03:17.153Z,8.53
2023-01-19T13:04:17.359Z,8.64